sensor_id;sensor_type;location;lat;lon;timestamp;P1;durP1;ratioP1;P2;durP2;ratioP2
22715;SDS011;11525;51.152;4.456;2023-09-19T00:00:45;15.73;;;3.92;;
22715;SDS011;11525;51.152;4.456;2023-09-19T00:03:12;16.30;;;3.55;;
22715;SDS011;11525;51.152;4.456;2023-09-19T00:05:38;17.30;;;4.07;;
22715;SDS011;11525;51.152;4.456;2023-09-19T00:08:04;16.02;;;3.78;;
22715;SDS011;11525;51.152;4.456;2023-09-19T00:10:31;13.40;;;3.78;;
22715;SDS011;11525;51.152;4.456;2023-09-19T00:13:00;18.58;;;4.18;;
22715;SDS011;11525;51.152;4.456;2023-09-19T00:15:30;10.43;;;3.72;;
22715;SDS011;11525;51.152;4.456;2023-09-19T00:18:00;15.80;;;4.13;;
22715;SDS011;11525;51.152;4.456;2023-09-19T00:20:26;11.00;;;3.25;;
22715;SDS011;11525;51.152;4.456;2023-09-19T00:22:54;17.63;;;4.55;;
22715;SDS011;11525;51.152;4.456;2023-09-19T00:25:20;13.63;;;3.75;;
22715;SDS011;11525;51.152;4.456;2023-09-19T00:27:46;13.48;;;3.75;;
22715;SDS011;11525;51.152;4.456;2023-09-19T00:30:16;14.82;;;3.75;;
22715;SDS011;11525;51.152;4.456;2023-09-19T00:32:46;10.82;;;3.60;;
22715;SDS011;11525;51.152;4.456;2023-09-19T00:35:13;14.70;;;3.42;;
22715;SDS011;11525;51.152;4.456;2023-09-19T00:37:40;15.35;;;3.50;;
22715;SDS011;11525;51.152;4.456;2023-09-19T00:40:07;14.52;;;3.58;;
22715;SDS011;11525;51.152;4.456;2023-09-19T00:42:41;13.38;;;3.08;;
22715;SDS011;11525;51.152;4.456;2023-09-19T00:45:11;12.90;;;3.78;;
22715;SDS011;11525;51.152;4.456;2023-09-19T00:47:39;15.93;;;3.88;;
22715;SDS011;11525;51.152;4.456;2023-09-19T00:50:07;11.98;;;3.45;;
22715;SDS011;11525;51.152;4.456;2023-09-19T00:52:36;10.73;;;2.65;;
22715;SDS011;11525;51.152;4.456;2023-09-19T00:55:04;9.55;;;3.42;;
22715;SDS011;11525;51.152;4.456;2023-09-19T00:57:34;13.52;;;3.47;;
22715;SDS011;11525;51.152;4.456;2023-09-19T01:00:02;8.73;;;3.20;;
22715;SDS011;11525;51.152;4.456;2023-09-19T01:02:32;12.32;;;3.78;;
22715;SDS011;11525;51.152;4.456;2023-09-19T01:04:58;11.25;;;3.58;;
22715;SDS011;11525;51.152;4.456;2023-09-19T01:07:29;8.68;;;3.03;;
22715;SDS011;11525;51.152;4.456;2023-09-19T01:09:57;15.02;;;3.25;;
22715;SDS011;11525;51.152;4.456;2023-09-19T01:12:30;10.95;;;3.53;;
22715;SDS011;11525;51.152;4.456;2023-09-19T01:15:15;10.00;;;3.47;;
22715;SDS011;11525;51.152;4.456;2023-09-19T01:32:01;10.13;;;3.53;;
22715;SDS011;11525;51.152;4.456;2023-09-19T01:34:46;11.25;;;3.13;;
22715;SDS011;11525;51.152;4.456;2023-09-19T01:37:14;9.73;;;3.92;;
22715;SDS011;11525;51.152;4.456;2023-09-19T01:39:45;8.77;;;3.17;;
22715;SDS011;11525;51.152;4.456;2023-09-19T01:44:50;14.50;;;3.17;;
22715;SDS011;11525;51.152;4.456;2023-09-19T01:47:29;10.50;;;3.63;;
22715;SDS011;11525;51.152;4.456;2023-09-19T01:52:40;11.00;;;3.15;;
22715;SDS011;11525;51.152;4.456;2023-09-19T01:55:13;16.63;;;3.67;;
22715;SDS011;11525;51.152;4.456;2023-09-19T01:57:45;12.85;;;3.30;;
22715;SDS011;11525;51.152;4.456;2023-09-19T02:00:17;11.75;;;2.80;;
22715;SDS011;11525;51.152;4.456;2023-09-19T02:02:46;11.77;;;3.90;;
22715;SDS011;11525;51.152;4.456;2023-09-19T02:05:12;13.73;;;3.60;;
22715;SDS011;11525;51.152;4.456;2023-09-19T02:07:38;14.55;;;4.15;;
22715;SDS011;11525;51.152;4.456;2023-09-19T02:10:06;11.57;;;3.53;;
22715;SDS011;11525;51.152;4.456;2023-09-19T02:12:32;13.85;;;3.97;;
22715;SDS011;11525;51.152;4.456;2023-09-19T02:15:00;13.90;;;3.95;;
22715;SDS011;11525;51.152;4.456;2023-09-19T02:17:26;12.05;;;3.38;;
22715;SDS011;11525;51.152;4.456;2023-09-19T02:19:52;13.45;;;3.78;;
22715;SDS011;11525;51.152;4.456;2023-09-19T02:22:19;11.38;;;3.83;;
22715;SDS011;11525;51.152;4.456;2023-09-19T02:24:46;13.48;;;4.00;;
22715;SDS011;11525;51.152;4.456;2023-09-19T02:27:13;17.33;;;3.30;;
22715;SDS011;11525;51.152;4.456;2023-09-19T02:29:41;12.18;;;3.65;;
22715;SDS011;11525;51.152;4.456;2023-09-19T02:32:07;16.02;;;4.43;;
22715;SDS011;11525;51.152;4.456;2023-09-19T02:34:34;13.80;;;3.60;;
22715;SDS011;11525;51.152;4.456;2023-09-19T02:37:02;12.45;;;3.90;;
22715;SDS011;11525;51.152;4.456;2023-09-19T02:39:31;13.82;;;3.53;;
22715;SDS011;11525;51.152;4.456;2023-09-19T02:41:57;17.27;;;3.70;;
22715;SDS011;11525;51.152;4.456;2023-09-19T02:44:23;13.35;;;3.65;;
22715;SDS011;11525;51.152;4.456;2023-09-19T02:46:49;11.25;;;3.75;;
22715;SDS011;11525;51.152;4.456;2023-09-19T02:49:15;11.80;;;3.50;;
22715;SDS011;11525;51.152;4.456;2023-09-19T02:51:42;13.93;;;3.40;;
22715;SDS011;11525;51.152;4.456;2023-09-19T02:54:08;12.77;;;3.58;;
22715;SDS011;11525;51.152;4.456;2023-09-19T02:56:34;12.23;;;4.20;;
22715;SDS011;11525;51.152;4.456;2023-09-19T02:59:01;17.75;;;3.50;;
22715;SDS011;11525;51.152;4.456;2023-09-19T03:01:27;14.10;;;3.97;;
22715;SDS011;11525;51.152;4.456;2023-09-19T03:03:55;15.63;;;4.18;;
22715;SDS011;11525;51.152;4.456;2023-09-19T03:06:21;12.15;;;3.63;;
22715;SDS011;11525;51.152;4.456;2023-09-19T03:08:48;16.35;;;4.38;;
22715;SDS011;11525;51.152;4.456;2023-09-19T03:11:17;15.55;;;4.32;;
22715;SDS011;11525;51.152;4.456;2023-09-19T03:13:50;19.70;;;4.22;;
22715;SDS011;11525;51.152;4.456;2023-09-19T03:16:19;14.48;;;4.03;;
22715;SDS011;11525;51.152;4.456;2023-09-19T03:18:46;15.73;;;3.92;;
22715;SDS011;11525;51.152;4.456;2023-09-19T03:21:14;16.83;;;4.18;;
22715;SDS011;11525;51.152;4.456;2023-09-19T03:23:42;19.45;;;4.75;;
22715;SDS011;11525;51.152;4.456;2023-09-19T03:26:10;22.02;;;4.93;;
22715;SDS011;11525;51.152;4.456;2023-09-19T03:28:37;15.82;;;4.07;;
22715;SDS011;11525;51.152;4.456;2023-09-19T03:31:04;16.75;;;3.88;;
22715;SDS011;11525;51.152;4.456;2023-09-19T03:33:31;10.95;;;3.38;;
22715;SDS011;11525;51.152;4.456;2023-09-19T03:35:59;14.15;;;4.07;;
22715;SDS011;11525;51.152;4.456;2023-09-19T03:38:26;15.10;;;3.38;;
22715;SDS011;11525;51.152;4.456;2023-09-19T03:40:52;12.27;;;3.45;;
22715;SDS011;11525;51.152;4.456;2023-09-19T03:43:18;11.95;;;3.92;;
22715;SDS011;11525;51.152;4.456;2023-09-19T03:45:44;12.55;;;3.92;;
22715;SDS011;11525;51.152;4.456;2023-09-19T03:48:11;11.30;;;4.03;;
22715;SDS011;11525;51.152;4.456;2023-09-19T03:50:38;14.07;;;3.53;;
22715;SDS011;11525;51.152;4.456;2023-09-19T03:53:04;13.27;;;3.13;;
22715;SDS011;11525;51.152;4.456;2023-09-19T03:55:32;15.20;;;3.88;;
22715;SDS011;11525;51.152;4.456;2023-09-19T03:58:00;12.00;;;3.83;;
22715;SDS011;11525;51.152;4.456;2023-09-19T04:00:27;15.25;;;4.40;;
22715;SDS011;11525;51.152;4.456;2023-09-19T04:02:54;9.88;;;3.03;;
22715;SDS011;11525;51.152;4.456;2023-09-19T04:05:21;16.35;;;3.70;;
22715;SDS011;11525;51.152;4.456;2023-09-19T04:07:47;13.27;;;3.40;;
22715;SDS011;11525;51.152;4.456;2023-09-19T04:10:13;16.63;;;4.38;;
22715;SDS011;11525;51.152;4.456;2023-09-19T04:12:39;13.57;;;3.72;;
22715;SDS011;11525;51.152;4.456;2023-09-19T04:15:06;14.07;;;3.85;;
22715;SDS011;11525;51.152;4.456;2023-09-19T04:17:32;15.48;;;3.95;;
22715;SDS011;11525;51.152;4.456;2023-09-19T04:19:58;14.52;;;4.05;;
22715;SDS011;11525;51.152;4.456;2023-09-19T04:22:24;12.80;;;3.60;;
22715;SDS011;11525;51.152;4.456;2023-09-19T04:24:50;17.90;;;4.50;;
22715;SDS011;11525;51.152;4.456;2023-09-19T04:27:16;14.38;;;4.22;;
22715;SDS011;11525;51.152;4.456;2023-09-19T04:29:42;20.88;;;4.65;;
22715;SDS011;11525;51.152;4.456;2023-09-19T04:32:07;15.52;;;3.92;;
22715;SDS011;11525;51.152;4.456;2023-09-19T04:34:34;13.70;;;3.83;;
22715;SDS011;11525;51.152;4.456;2023-09-19T04:37:00;16.05;;;3.75;;
22715;SDS011;11525;51.152;4.456;2023-09-19T04:39:27;21.75;;;4.35;;
22715;SDS011;11525;51.152;4.456;2023-09-19T04:41:53;18.48;;;4.75;;
22715;SDS011;11525;51.152;4.456;2023-09-19T04:44:19;17.73;;;3.65;;
22715;SDS011;11525;51.152;4.456;2023-09-19T04:46:46;13.65;;;3.75;;
22715;SDS011;11525;51.152;4.456;2023-09-19T04:49:12;14.82;;;4.25;;
22715;SDS011;11525;51.152;4.456;2023-09-19T04:51:38;21.85;;;4.72;;
22715;SDS011;11525;51.152;4.456;2023-09-19T04:54:05;17.77;;;4.53;;
22715;SDS011;11525;51.152;4.456;2023-09-19T04:56:31;16.10;;;4.10;;
22715;SDS011;11525;51.152;4.456;2023-09-19T04:58:58;20.33;;;4.53;;
22715;SDS011;11525;51.152;4.456;2023-09-19T05:01:25;13.52;;;3.67;;
22715;SDS011;11525;51.152;4.456;2023-09-19T05:03:51;18.98;;;4.00;;
22715;SDS011;11525;51.152;4.456;2023-09-19T05:06:19;14.05;;;3.97;;
22715;SDS011;11525;51.152;4.456;2023-09-19T05:08:46;12.60;;;3.42;;
22715;SDS011;11525;51.152;4.456;2023-09-19T05:11:16;16.17;;;4.57;;
22715;SDS011;11525;51.152;4.456;2023-09-19T05:13:48;14.10;;;3.97;;
22715;SDS011;11525;51.152;4.456;2023-09-19T05:16:18;19.77;;;4.28;;
22715;SDS011;11525;51.152;4.456;2023-09-19T05:18:44;12.32;;;4.05;;
22715;SDS011;11525;51.152;4.456;2023-09-19T05:21:10;21.02;;;4.82;;
22715;SDS011;11525;51.152;4.456;2023-09-19T05:23:35;13.02;;;3.38;;
22715;SDS011;11525;51.152;4.456;2023-09-19T05:26:02;11.85;;;3.40;;
22715;SDS011;11525;51.152;4.456;2023-09-19T05:28:30;17.85;;;4.32;;
22715;SDS011;11525;51.152;4.456;2023-09-19T05:30:57;20.05;;;4.50;;
22715;SDS011;11525;51.152;4.456;2023-09-19T05:33:27;19.27;;;4.18;;
22715;SDS011;11525;51.152;4.456;2023-09-19T05:35:54;18.48;;;3.45;;
22715;SDS011;11525;51.152;4.456;2023-09-19T05:38:21;20.55;;;4.18;;
22715;SDS011;11525;51.152;4.456;2023-09-19T05:40:47;16.63;;;4.45;;
22715;SDS011;11525;51.152;4.456;2023-09-19T05:43:13;18.05;;;4.10;;
22715;SDS011;11525;51.152;4.456;2023-09-19T05:45:41;24.48;;;3.92;;
22715;SDS011;11525;51.152;4.456;2023-09-19T05:48:08;15.75;;;3.88;;
22715;SDS011;11525;51.152;4.456;2023-09-19T05:50:39;12.45;;;4.20;;
22715;SDS011;11525;51.152;4.456;2023-09-19T05:53:05;17.25;;;4.50;;
22715;SDS011;11525;51.152;4.456;2023-09-19T05:55:32;19.45;;;4.38;;
22715;SDS011;11525;51.152;4.456;2023-09-19T05:57:58;15.90;;;4.20;;
22715;SDS011;11525;51.152;4.456;2023-09-19T06:00:24;18.95;;;4.82;;
22715;SDS011;11525;51.152;4.456;2023-09-19T06:02:52;18.20;;;3.92;;
22715;SDS011;11525;51.152;4.456;2023-09-19T06:05:19;14.10;;;3.85;;
22715;SDS011;11525;51.152;4.456;2023-09-19T06:07:45;13.30;;;3.88;;
22715;SDS011;11525;51.152;4.456;2023-09-19T06:10:12;17.40;;;4.10;;
22715;SDS011;11525;51.152;4.456;2023-09-19T06:12:44;15.23;;;4.28;;
22715;SDS011;11525;51.152;4.456;2023-09-19T06:15:10;14.68;;;4.07;;
22715;SDS011;11525;51.152;4.456;2023-09-19T06:17:47;17.05;;;3.92;;
22715;SDS011;11525;51.152;4.456;2023-09-19T06:20:13;15.77;;;4.32;;
22715;SDS011;11525;51.152;4.456;2023-09-19T06:22:44;17.02;;;3.95;;
22715;SDS011;11525;51.152;4.456;2023-09-19T06:25:11;14.70;;;3.90;;
22715;SDS011;11525;51.152;4.456;2023-09-19T06:27:40;20.63;;;4.13;;
22715;SDS011;11525;51.152;4.456;2023-09-19T06:30:07;13.70;;;3.67;;
22715;SDS011;11525;51.152;4.456;2023-09-19T06:32:34;19.60;;;4.35;;
22715;SDS011;11525;51.152;4.456;2023-09-19T06:35:00;17.90;;;4.45;;
22715;SDS011;11525;51.152;4.456;2023-09-19T06:37:29;16.70;;;3.78;;
22715;SDS011;11525;51.152;4.456;2023-09-19T06:39:55;13.93;;;3.75;;
22715;SDS011;11525;51.152;4.456;2023-09-19T06:42:22;14.77;;;4.20;;
22715;SDS011;11525;51.152;4.456;2023-09-19T06:44:48;15.15;;;3.38;;
22715;SDS011;11525;51.152;4.456;2023-09-19T06:47:14;14.40;;;3.83;;
22715;SDS011;11525;51.152;4.456;2023-09-19T06:49:41;16.23;;;3.80;;
22715;SDS011;11525;51.152;4.456;2023-09-19T06:52:09;9.75;;;3.00;;
22715;SDS011;11525;51.152;4.456;2023-09-19T06:54:34;18.63;;;3.90;;
22715;SDS011;11525;51.152;4.456;2023-09-19T06:57:01;12.40;;;3.42;;
22715;SDS011;11525;51.152;4.456;2023-09-19T06:59:26;17.10;;;4.25;;
22715;SDS011;11525;51.152;4.456;2023-09-19T07:01:52;16.40;;;3.75;;
22715;SDS011;11525;51.152;4.456;2023-09-19T07:04:18;10.95;;;3.30;;
22715;SDS011;11525;51.152;4.456;2023-09-19T07:06:50;19.15;;;3.53;;
22715;SDS011;11525;51.152;4.456;2023-09-19T07:09:16;14.55;;;3.95;;
22715;SDS011;11525;51.152;4.456;2023-09-19T07:11:42;13.70;;;3.90;;
22715;SDS011;11525;51.152;4.456;2023-09-19T07:14:08;21.13;;;4.35;;
22715;SDS011;11525;51.152;4.456;2023-09-19T07:16:36;16.30;;;3.67;;
22715;SDS011;11525;51.152;4.456;2023-09-19T07:19:07;13.88;;;3.78;;
22715;SDS011;11525;51.152;4.456;2023-09-19T07:21:33;12.90;;;3.30;;
22715;SDS011;11525;51.152;4.456;2023-09-19T07:24:00;16.27;;;3.80;;
22715;SDS011;11525;51.152;4.456;2023-09-19T07:26:27;13.80;;;2.97;;
22715;SDS011;11525;51.152;4.456;2023-09-19T07:28:53;16.10;;;3.40;;
22715;SDS011;11525;51.152;4.456;2023-09-19T07:31:19;13.40;;;3.50;;
22715;SDS011;11525;51.152;4.456;2023-09-19T07:33:45;15.82;;;3.38;;
22715;SDS011;11525;51.152;4.456;2023-09-19T07:36:11;15.48;;;3.00;;
22715;SDS011;11525;51.152;4.456;2023-09-19T07:38:38;10.98;;;3.40;;
22715;SDS011;11525;51.152;4.456;2023-09-19T07:41:08;15.65;;;4.05;;
22715;SDS011;11525;51.152;4.456;2023-09-19T07:43:34;17.67;;;3.53;;
22715;SDS011;11525;51.152;4.456;2023-09-19T07:46:04;16.65;;;3.85;;
22715;SDS011;11525;51.152;4.456;2023-09-19T07:48:32;15.30;;;3.58;;
22715;SDS011;11525;51.152;4.456;2023-09-19T07:51:02;17.52;;;3.70;;
22715;SDS011;11525;51.152;4.456;2023-09-19T07:53:28;15.98;;;3.53;;
22715;SDS011;11525;51.152;4.456;2023-09-19T07:56:01;17.42;;;3.45;;
22715;SDS011;11525;51.152;4.456;2023-09-19T07:58:28;13.73;;;3.17;;
22715;SDS011;11525;51.152;4.456;2023-09-19T08:00:54;12.43;;;3.10;;
22715;SDS011;11525;51.152;4.456;2023-09-19T08:03:20;12.82;;;2.92;;
22715;SDS011;11525;51.152;4.456;2023-09-19T08:05:45;19.40;;;3.75;;
22715;SDS011;11525;51.152;4.456;2023-09-19T08:08:13;16.38;;;3.33;;
22715;SDS011;11525;51.152;4.456;2023-09-19T08:10:39;15.00;;;3.22;;
22715;SDS011;11525;51.152;4.456;2023-09-19T08:13:07;21.67;;;3.85;;
22715;SDS011;11525;51.152;4.456;2023-09-19T08:15:36;15.68;;;3.13;;
22715;SDS011;11525;51.152;4.456;2023-09-19T08:18:09;13.13;;;3.70;;
22715;SDS011;11525;51.152;4.456;2023-09-19T08:20:37;9.68;;;3.00;;
22715;SDS011;11525;51.152;4.456;2023-09-19T08:23:03;13.50;;;3.47;;
22715;SDS011;11525;51.152;4.456;2023-09-19T08:25:29;12.50;;;2.88;;
22715;SDS011;11525;51.152;4.456;2023-09-19T08:27:55;10.95;;;3.03;;
22715;SDS011;11525;51.152;4.456;2023-09-19T08:30:26;11.93;;;3.05;;
22715;SDS011;11525;51.152;4.456;2023-09-19T08:33:01;8.18;;;2.67;;
22715;SDS011;11525;51.152;4.456;2023-09-19T08:35:30;13.13;;;3.35;;
22715;SDS011;11525;51.152;4.456;2023-09-19T08:37:56;13.07;;;3.38;;
22715;SDS011;11525;51.152;4.456;2023-09-19T08:40:22;14.85;;;2.83;;
22715;SDS011;11525;51.152;4.456;2023-09-19T08:42:54;10.15;;;2.85;;
22715;SDS011;11525;51.152;4.456;2023-09-19T08:45:24;10.77;;;2.83;;
22715;SDS011;11525;51.152;4.456;2023-09-19T08:50:49;11.10;;;2.92;;
22715;SDS011;11525;51.152;4.456;2023-09-19T08:53:27;15.68;;;3.13;;
22715;SDS011;11525;51.152;4.456;2023-09-19T08:56:11;10.07;;;3.03;;
22715;SDS011;11525;51.152;4.456;2023-09-19T08:58:40;19.15;;;3.58;;
22715;SDS011;11525;51.152;4.456;2023-09-19T09:01:18;16.58;;;3.25;;
22715;SDS011;11525;51.152;4.456;2023-09-19T09:03:51;15.63;;;3.40;;
22715;SDS011;11525;51.152;4.456;2023-09-19T09:06:18;10.77;;;2.72;;
22715;SDS011;11525;51.152;4.456;2023-09-19T09:08:45;9.18;;;2.72;;
22715;SDS011;11525;51.152;4.456;2023-09-19T09:11:12;9.85;;;2.83;;
22715;SDS011;11525;51.152;4.456;2023-09-19T09:13:41;10.45;;;2.67;;
22715;SDS011;11525;51.152;4.456;2023-09-19T09:16:09;11.13;;;3.33;;
22715;SDS011;11525;51.152;4.456;2023-09-19T09:18:35;18.15;;;3.75;;
22715;SDS011;11525;51.152;4.456;2023-09-19T09:21:02;13.30;;;3.70;;
22715;SDS011;11525;51.152;4.456;2023-09-19T09:23:29;14.30;;;3.17;;
22715;SDS011;11525;51.152;4.456;2023-09-19T09:25:57;14.10;;;2.97;;
22715;SDS011;11525;51.152;4.456;2023-09-19T09:28:27;10.80;;;3.42;;
22715;SDS011;11525;51.152;4.456;2023-09-19T09:30:53;9.40;;;2.85;;
22715;SDS011;11525;51.152;4.456;2023-09-19T09:33:20;12.65;;;3.45;;
22715;SDS011;11525;51.152;4.456;2023-09-19T09:38:44;10.57;;;3.28;;
22715;SDS011;11525;51.152;4.456;2023-09-19T09:41:11;8.93;;;2.83;;
22715;SDS011;11525;51.152;4.456;2023-09-19T09:43:40;10.43;;;3.05;;
22715;SDS011;11525;51.152;4.456;2023-09-19T09:48:48;13.73;;;2.70;;
22715;SDS011;11525;51.152;4.456;2023-09-19T09:51:45;8.95;;;2.53;;
22715;SDS011;11525;51.152;4.456;2023-09-19T09:54:22;12.68;;;2.50;;
22715;SDS011;11525;51.152;4.456;2023-09-19T09:56:56;14.57;;;3.20;;
22715;SDS011;11525;51.152;4.456;2023-09-19T09:59:43;12.00;;;3.05;;
22715;SDS011;11525;51.152;4.456;2023-09-19T10:02:29;9.40;;;3.13;;
22715;SDS011;11525;51.152;4.456;2023-09-19T10:05:03;9.00;;;1.80;;
22715;SDS011;11525;51.152;4.456;2023-09-19T10:07:46;11.80;;;2.95;;
22715;SDS011;11525;51.152;4.456;2023-09-19T10:10:14;8.43;;;2.40;;
22715;SDS011;11525;51.152;4.456;2023-09-19T10:12:54;15.32;;;2.67;;
22715;SDS011;11525;51.152;4.456;2023-09-19T10:15:28;8.88;;;2.72;;
22715;SDS011;11525;51.152;4.456;2023-09-19T10:17:57;9.45;;;2.00;;
22715;SDS011;11525;51.152;4.456;2023-09-19T10:20:26;6.78;;;2.20;;
22715;SDS011;11525;51.152;4.456;2023-09-19T10:23:07;7.65;;;2.10;;
22715;SDS011;11525;51.152;4.456;2023-09-19T10:25:39;10.52;;;2.05;;
22715;SDS011;11525;51.152;4.456;2023-09-19T10:28:09;6.63;;;1.67;;
22715;SDS011;11525;51.152;4.456;2023-09-19T10:30:45;6.43;;;2.00;;
22715;SDS011;11525;51.152;4.456;2023-09-19T10:33:16;7.85;;;2.30;;
22715;SDS011;11525;51.152;4.456;2023-09-19T10:35:46;6.35;;;1.92;;
22715;SDS011;11525;51.152;4.456;2023-09-19T10:38:14;6.03;;;1.67;;
22715;SDS011;11525;51.152;4.456;2023-09-19T10:40:44;8.52;;;2.03;;
22715;SDS011;11525;51.152;4.456;2023-09-19T10:43:15;6.78;;;1.80;;
22715;SDS011;11525;51.152;4.456;2023-09-19T10:45:45;5.00;;;1.35;;
22715;SDS011;11525;51.152;4.456;2023-09-19T10:48:14;6.47;;;2.03;;
22715;SDS011;11525;51.152;4.456;2023-09-19T10:53:24;7.05;;;1.73;;
22715;SDS011;11525;51.152;4.456;2023-09-19T10:55:53;7.43;;;2.20;;
22715;SDS011;11525;51.152;4.456;2023-09-19T10:58:31;6.70;;;2.15;;
22715;SDS011;11525;51.152;4.456;2023-09-19T11:00:59;5.97;;;1.90;;
22715;SDS011;11525;51.152;4.456;2023-09-19T11:03:36;7.72;;;2.00;;
22715;SDS011;11525;51.152;4.456;2023-09-19T11:06:11;8.68;;;1.90;;
22715;SDS011;11525;51.152;4.456;2023-09-19T11:08:51;8.07;;;2.25;;
22715;SDS011;11525;51.152;4.456;2023-09-19T11:11:40;7.95;;;2.03;;
22715;SDS011;11525;51.152;4.456;2023-09-19T11:14:28;9.27;;;2.30;;
22715;SDS011;11525;51.152;4.456;2023-09-19T11:33:16;6.93;;;1.95;;
22715;SDS011;11525;51.152;4.456;2023-09-19T11:36:03;4.28;;;1.60;;
22715;SDS011;11525;51.152;4.456;2023-09-19T11:49:19;7.72;;;1.92;;
22715;SDS011;11525;51.152;4.456;2023-09-19T11:51:55;6.45;;;1.48;;
22715;SDS011;11525;51.152;4.456;2023-09-19T11:54:22;11.50;;;1.55;;
22715;SDS011;11525;51.152;4.456;2023-09-19T11:56:50;7.22;;;1.75;;
22715;SDS011;11525;51.152;4.456;2023-09-19T11:59:19;8.13;;;1.52;;
22715;SDS011;11525;51.152;4.456;2023-09-19T12:01:52;6.60;;;1.52;;
22715;SDS011;11525;51.152;4.456;2023-09-19T12:04:41;5.25;;;2.03;;
22715;SDS011;11525;51.152;4.456;2023-09-19T12:07:13;9.27;;;1.88;;
22715;SDS011;11525;51.152;4.456;2023-09-19T12:09:44;7.57;;;1.75;;
22715;SDS011;11525;51.152;4.456;2023-09-19T12:12:25;6.47;;;1.60;;
22715;SDS011;11525;51.152;4.456;2023-09-19T12:15:00;8.93;;;1.52;;
22715;SDS011;11525;51.152;4.456;2023-09-19T12:17:35;7.75;;;1.90;;
22715;SDS011;11525;51.152;4.456;2023-09-19T12:20:06;10.15;;;2.13;;
22715;SDS011;11525;51.152;4.456;2023-09-19T12:22:39;6.88;;;1.75;;
22715;SDS011;11525;51.152;4.456;2023-09-19T12:25:06;6.78;;;1.40;;
22715;SDS011;11525;51.152;4.456;2023-09-19T12:27:41;7.80;;;1.58;;
22715;SDS011;11525;51.152;4.456;2023-09-19T12:30:18;7.93;;;1.70;;
22715;SDS011;11525;51.152;4.456;2023-09-19T12:32:45;9.30;;;1.63;;
22715;SDS011;11525;51.152;4.456;2023-09-19T12:35:30;5.60;;;1.80;;
22715;SDS011;11525;51.152;4.456;2023-09-19T12:38:00;4.97;;;1.67;;
22715;SDS011;11525;51.152;4.456;2023-09-19T12:40:26;4.50;;;1.75;;
22715;SDS011;11525;51.152;4.456;2023-09-19T12:42:58;6.97;;;1.90;;
22715;SDS011;11525;51.152;4.456;2023-09-19T12:45:25;5.88;;;1.67;;
22715;SDS011;11525;51.152;4.456;2023-09-19T12:51:02;4.32;;;1.48;;
22715;SDS011;11525;51.152;4.456;2023-09-19T12:53:37;5.57;;;1.40;;
22715;SDS011;11525;51.152;4.456;2023-09-19T12:56:11;3.53;;;1.30;;
22715;SDS011;11525;51.152;4.456;2023-09-19T12:58:56;6.20;;;1.55;;
22715;SDS011;11525;51.152;4.456;2023-09-19T13:01:28;4.88;;;1.52;;
22715;SDS011;11525;51.152;4.456;2023-09-19T13:06:58;4.82;;;1.60;;
22715;SDS011;11525;51.152;4.456;2023-09-19T13:09:27;6.88;;;1.83;;
22715;SDS011;11525;51.152;4.456;2023-09-19T13:11:59;5.30;;;1.40;;
22715;SDS011;11525;51.152;4.456;2023-09-19T13:14:28;5.13;;;1.55;;
22715;SDS011;11525;51.152;4.456;2023-09-19T13:17:08;6.15;;;1.67;;
22715;SDS011;11525;51.152;4.456;2023-09-19T13:19:49;6.75;;;1.58;;
22715;SDS011;11525;51.152;4.456;2023-09-19T13:25:11;3.70;;;1.50;;
22715;SDS011;11525;51.152;4.456;2023-09-19T13:27:43;5.40;;;1.77;;
22715;SDS011;11525;51.152;4.456;2023-09-19T13:30:16;6.25;;;2.10;;
22715;SDS011;11525;51.152;4.456;2023-09-19T13:32:42;6.22;;;2.20;;
22715;SDS011;11525;51.152;4.456;2023-09-19T13:35:09;6.55;;;1.70;;
22715;SDS011;11525;51.152;4.456;2023-09-19T13:37:35;3.83;;;1.73;;
22715;SDS011;11525;51.152;4.456;2023-09-19T13:40:09;6.10;;;1.85;;
22715;SDS011;11525;51.152;4.456;2023-09-19T13:42:36;11.20;;;2.03;;
22715;SDS011;11525;51.152;4.456;2023-09-19T13:45:05;7.32;;;1.90;;
22715;SDS011;11525;51.152;4.456;2023-09-19T13:47:36;4.95;;;1.92;;
22715;SDS011;11525;51.152;4.456;2023-09-19T13:50:03;7.80;;;1.88;;
22715;SDS011;11525;51.152;4.456;2023-09-19T13:52:30;6.15;;;1.63;;
22715;SDS011;11525;51.152;4.456;2023-09-19T13:54:56;6.10;;;1.73;;
22715;SDS011;11525;51.152;4.456;2023-09-19T13:57:23;7.50;;;2.35;;
22715;SDS011;11525;51.152;4.456;2023-09-19T13:59:49;9.23;;;1.75;;
22715;SDS011;11525;51.152;4.456;2023-09-19T14:02:16;7.82;;;1.70;;
22715;SDS011;11525;51.152;4.456;2023-09-19T14:04:43;8.00;;;1.88;;
22715;SDS011;11525;51.152;4.456;2023-09-19T14:07:09;5.97;;;1.95;;
22715;SDS011;11525;51.152;4.456;2023-09-19T14:09:36;9.63;;;2.58;;
22715;SDS011;11525;51.152;4.456;2023-09-19T14:12:01;7.55;;;2.05;;
22715;SDS011;11525;51.152;4.456;2023-09-19T14:14:27;6.97;;;1.90;;
22715;SDS011;11525;51.152;4.456;2023-09-19T14:16:53;6.63;;;2.20;;
22715;SDS011;11525;51.152;4.456;2023-09-19T14:19:19;8.57;;;1.60;;
22715;SDS011;11525;51.152;4.456;2023-09-19T14:21:45;7.75;;;2.05;;
22715;SDS011;11525;51.152;4.456;2023-09-19T14:24:13;5.90;;;1.80;;
22715;SDS011;11525;51.152;4.456;2023-09-19T14:26:42;9.65;;;2.03;;
22715;SDS011;11525;51.152;4.456;2023-09-19T14:29:08;3.33;;;2.00;;
22715;SDS011;11525;51.152;4.456;2023-09-19T14:31:36;8.13;;;2.53;;
22715;SDS011;11525;51.152;4.456;2023-09-19T14:34:03;8.10;;;1.67;;
22715;SDS011;11525;51.152;4.456;2023-09-19T14:36:30;7.07;;;2.08;;
22715;SDS011;11525;51.152;4.456;2023-09-19T14:38:56;7.10;;;2.28;;
22715;SDS011;11525;51.152;4.456;2023-09-19T14:41:22;6.50;;;2.20;;
22715;SDS011;11525;51.152;4.456;2023-09-19T14:43:50;8.88;;;1.98;;
22715;SDS011;11525;51.152;4.456;2023-09-19T14:46:17;6.53;;;1.58;;
22715;SDS011;11525;51.152;4.456;2023-09-19T14:48:44;6.10;;;1.88;;
22715;SDS011;11525;51.152;4.456;2023-09-19T14:51:13;8.48;;;2.30;;
22715;SDS011;11525;51.152;4.456;2023-09-19T14:53:39;5.28;;;1.92;;
22715;SDS011;11525;51.152;4.456;2023-09-19T14:56:09;9.60;;;2.05;;
22715;SDS011;11525;51.152;4.456;2023-09-19T14:58:36;5.25;;;1.98;;
22715;SDS011;11525;51.152;4.456;2023-09-19T15:03:35;6.07;;;2.05;;
22715;SDS011;11525;51.152;4.456;2023-09-19T15:06:02;5.28;;;2.28;;
22715;SDS011;11525;51.152;4.456;2023-09-19T15:08:32;7.82;;;2.08;;
22715;SDS011;11525;51.152;4.456;2023-09-19T15:11:00;6.90;;;2.30;;
22715;SDS011;11525;51.152;4.456;2023-09-19T15:13:32;9.38;;;2.67;;
22715;SDS011;11525;51.152;4.456;2023-09-19T15:16:00;7.70;;;2.38;;
22715;SDS011;11525;51.152;4.456;2023-09-19T15:18:29;8.85;;;2.45;;
22715;SDS011;11525;51.152;4.456;2023-09-19T15:21:01;11.77;;;2.42;;
22715;SDS011;11525;51.152;4.456;2023-09-19T15:23:29;6.40;;;1.95;;
22715;SDS011;11525;51.152;4.456;2023-09-19T15:25:56;6.30;;;2.22;;
22715;SDS011;11525;51.152;4.456;2023-09-19T15:28:22;6.85;;;2.20;;
22715;SDS011;11525;51.152;4.456;2023-09-19T15:30:48;9.18;;;2.40;;
22715;SDS011;11525;51.152;4.456;2023-09-19T15:33:15;7.30;;;2.08;;
22715;SDS011;11525;51.152;4.456;2023-09-19T15:35:40;4.40;;;1.77;;
22715;SDS011;11525;51.152;4.456;2023-09-19T15:38:07;14.02;;;3.03;;
22715;SDS011;11525;51.152;4.456;2023-09-19T15:40:33;5.32;;;1.83;;
22715;SDS011;11525;51.152;4.456;2023-09-19T15:42:59;10.77;;;2.47;;
22715;SDS011;11525;51.152;4.456;2023-09-19T15:45:25;8.35;;;2.60;;
22715;SDS011;11525;51.152;4.456;2023-09-19T15:47:51;7.22;;;2.72;;
22715;SDS011;11525;51.152;4.456;2023-09-19T15:50:18;9.18;;;2.60;;
22715;SDS011;11525;51.152;4.456;2023-09-19T15:52:44;6.28;;;1.98;;
22715;SDS011;11525;51.152;4.456;2023-09-19T15:55:09;5.35;;;2.05;;
22715;SDS011;11525;51.152;4.456;2023-09-19T15:57:36;7.63;;;2.45;;